sensor_id;sensor_type;location;lat;lon;timestamp;pressure;altitude;pressure_sealevel;temperature;humidity
63700;BME280;49845;47.130;142.766;2023-04-28T00:02:06;100526.09;;;9.76;36.39
63700;BME280;49845;47.130;142.766;2023-04-28T00:04:38;100530.38;;;9.82;36.35
63700;BME280;49845;47.130;142.766;2023-04-28T00:07:09;100501.72;;;9.79;35.96
63700;BME280;49845;47.130;142.766;2023-04-28T00:09:40;100539.03;;;9.88;36.26
63700;BME280;49845;47.130;142.766;2023-04-28T00:12:10;100533.72;;;9.96;35.99
63700;BME280;49845;47.130;142.766;2023-04-28T00:14:41;100545.03;;;9.97;35.80
63700;BME280;49845;47.130;142.766;2023-04-28T00:17:12;100536.31;;;9.98;35.83
63700;BME280;49845;47.130;142.766;2023-04-28T00:19:44;100545.75;;;10.14;35.98
63700;BME280;49845;47.130;142.766;2023-04-28T00:22:14;100541.97;;;10.44;34.87
63700;BME280;49845;47.130;142.766;2023-04-28T00:24:45;100544.31;;;10.66;35.10
63700;BME280;49845;47.130;142.766;2023-04-28T00:27:15;100559.25;;;10.53;35.17
63700;BME280;49845;47.130;142.766;2023-04-28T00:29:46;100549.63;;;10.61;35.08
63700;BME280;49845;47.130;142.766;2023-04-28T00:32:16;100554.84;;;10.61;35.74
63700;BME280;49845;47.130;142.766;2023-04-28T00:34:49;100558.44;;;10.48;35.65
63700;BME280;49845;47.130;142.766;2023-04-28T00:37:20;100559.53;;;10.25;35.19
63700;BME280;49845;47.130;142.766;2023-04-28T00:39:54;100569.25;;;10.14;34.82
63700;BME280;49845;47.130;142.766;2023-04-28T00:42:30;100554.34;;;10.24;35.76
63700;BME280;49845;47.130;142.766;2023-04-28T00:45:02;100570.25;;;9.99;34.54
63700;BME280;49845;47.130;142.766;2023-04-28T00:47:34;100567.75;;;9.88;35.36
63700;BME280;49845;47.130;142.766;2023-04-28T00:50:10;100560.78;;;9.87;34.78
63700;BME280;49845;47.130;142.766;2023-04-28T00:52:41;100579.25;;;9.60;35.38
63700;BME280;49845;47.130;142.766;2023-04-28T00:55:14;100569.78;;;9.49;36.29
63700;BME280;49845;47.130;142.766;2023-04-28T00:57:45;100567.88;;;9.70;37.32
63700;BME280;49845;47.130;142.766;2023-04-28T01:00:16;100565.63;;;10.27;38.30
63700;BME280;49845;47.130;142.766;2023-04-28T01:02:47;100563.94;;;10.20;33.81
63700;BME280;49845;47.130;142.766;2023-04-28T01:05:21;100531.34;;;9.70;34.80
63700;BME280;49845;47.130;142.766;2023-04-28T01:07:52;100579.91;;;9.89;34.72
63700;BME280;49845;47.130;142.766;2023-04-28T01:10:23;100563.53;;;9.67;35.59
63700;BME280;49845;47.130;142.766;2023-04-28T01:12:56;100578.28;;;9.76;36.85
63700;BME280;49845;47.130;142.766;2023-04-28T01:15:27;100567.78;;;9.82;36.66
63700;BME280;49845;47.130;142.766;2023-04-28T01:17:58;100565.59;;;10.30;36.87
63700;BME280;49845;47.130;142.766;2023-04-28T01:20:31;100597.84;;;10.28;35.11
63700;BME280;49845;47.130;142.766;2023-04-28T01:23:01;100596.22;;;10.16;35.66
63700;BME280;49845;47.130;142.766;2023-04-28T01:25:33;100596.88;;;10.40;34.75
63700;BME280;49845;47.130;142.766;2023-04-28T01:28:04;100593.19;;;10.59;33.56
63700;BME280;49845;47.130;142.766;2023-04-28T01:30:35;100592.84;;;10.87;35.07
63700;BME280;49845;47.130;142.766;2023-04-28T01:33:05;100596.94;;;11.08;33.15
63700;BME280;49845;47.130;142.766;2023-04-28T01:35:36;100589.72;;;11.25;32.37
63700;BME280;49845;47.130;142.766;2023-04-28T01:38:07;100585.22;;;11.35;34.17
63700;BME280;49845;47.130;142.766;2023-04-28T01:40:39;100586.75;;;11.51;33.72
63700;BME280;49845;47.130;142.766;2023-04-28T01:43:10;100596.53;;;11.37;34.70
63700;BME280;49845;47.130;142.766;2023-04-28T01:45:40;100607.97;;;11.30;33.08
63700;BME280;49845;47.130;142.766;2023-04-28T01:48:11;100602.59;;;11.40;33.09
63700;BME280;49845;47.130;142.766;2023-04-28T01:50:42;100595.22;;;11.69;33.85
63700;BME280;49845;47.130;142.766;2023-04-28T01:53:12;100594.66;;;12.04;34.42
63700;BME280;49845;47.130;142.766;2023-04-28T01:55:45;100522.78;;;11.13;34.76
63700;BME280;49845;47.130;142.766;2023-04-28T01:58:15;100597.78;;;11.11;34.53
63700;BME280;49845;47.130;142.766;2023-04-28T02:00:46;100606.94;;;10.76;34.27
63700;BME280;49845;47.130;142.766;2023-04-28T02:03:17;100612.34;;;10.61;34.93
63700;BME280;49845;47.130;142.766;2023-04-28T02:05:48;100600.16;;;10.57;35.75
63700;BME280;49845;47.130;142.766;2023-04-28T02:08:19;100606.03;;;10.79;35.20
63700;BME280;49845;47.130;142.766;2023-04-28T02:10:51;100601.88;;;10.61;35.99
63700;BME280;49845;47.130;142.766;2023-04-28T02:13:22;100602.81;;;10.54;36.51
63700;BME280;49845;47.130;142.766;2023-04-28T02:15:52;100604.66;;;10.43;35.65
63700;BME280;49845;47.130;142.766;2023-04-28T02:18:23;100598.66;;;10.34;35.43
63700;BME280;49845;47.130;142.766;2023-04-28T02:20:54;100605.69;;;10.28;35.62
63700;BME280;49845;47.130;142.766;2023-04-28T02:23:24;100611.38;;;10.67;36.55
63700;BME280;49845;47.130;142.766;2023-04-28T02:26:02;100616.34;;;10.91;35.10
63700;BME280;49845;47.130;142.766;2023-04-28T02:28:32;100619.31;;;10.59;34.87
63700;BME280;49845;47.130;142.766;2023-04-28T02:31:04;100628.19;;;10.43;36.22
63700;BME280;49845;47.130;142.766;2023-04-28T02:33:35;100621.81;;;10.70;35.92
63700;BME280;49845;47.130;142.766;2023-04-28T02:36:07;100630.72;;;11.25;35.85
63700;BME280;49845;47.130;142.766;2023-04-28T02:38:38;100614.97;;;11.28;34.98
63700;BME280;49845;47.130;142.766;2023-04-28T02:41:10;100618.09;;;11.54;36.51
63700;BME280;49845;47.130;142.766;2023-04-28T02:43:42;100624.25;;;11.52;35.52
63700;BME280;49845;47.130;142.766;2023-04-28T02:46:12;100634.19;;;11.27;35.18
63700;BME280;49845;47.130;142.766;2023-04-28T02:48:43;100617.63;;;11.26;33.92
63700;BME280;49845;47.130;142.766;2023-04-28T02:51:14;100623.56;;;11.39;33.79
63700;BME280;49845;47.130;142.766;2023-04-28T02:53:44;100619.63;;;11.71;34.84
63700;BME280;49845;47.130;142.766;2023-04-28T02:56:16;100617.69;;;11.82;35.38
63700;BME280;49845;47.130;142.766;2023-04-28T02:58:47;100618.22;;;11.45;34.70
63700;BME280;49845;47.130;142.766;2023-04-28T03:01:17;100614.81;;;11.40;34.39
63700;BME280;49845;47.130;142.766;2023-04-28T03:03:48;100624.06;;;11.62;33.49
63700;BME280;49845;47.130;142.766;2023-04-28T03:06:19;100621.38;;;11.69;32.20
63700;BME280;49845;47.130;142.766;2023-04-28T03:08:49;100616.00;;;11.78;32.54
63700;BME280;49845;47.130;142.766;2023-04-28T03:11:22;100619.94;;;12.05;34.25
63700;BME280;49845;47.130;142.766;2023-04-28T03:13:55;100579.25;;;11.82;33.55
63700;BME280;49845;47.130;142.766;2023-04-28T03:16:25;100623.53;;;11.99;33.96
63700;BME280;49845;47.130;142.766;2023-04-28T03:18:56;100624.44;;;11.98;33.89
63700;BME280;49845;47.130;142.766;2023-04-28T03:21:27;100621.19;;;11.81;34.02
63700;BME280;49845;47.130;142.766;2023-04-28T03:23:58;100625.66;;;11.73;33.79
63700;BME280;49845;47.130;142.766;2023-04-28T03:26:33;100626.38;;;11.84;34.19
63700;BME280;49845;47.130;142.766;2023-04-28T03:29:04;100625.19;;;12.06;34.23
63700;BME280;49845;47.130;142.766;2023-04-28T03:31:35;100628.50;;;12.16;32.82
63700;BME280;49845;47.130;142.766;2023-04-28T03:34:05;100632.56;;;12.34;32.44
63700;BME280;49845;47.130;142.766;2023-04-28T03:36:36;100635.84;;;12.45;32.70
63700;BME280;49845;47.130;142.766;2023-04-28T03:39:06;100625.88;;;12.66;32.52
63700;BME280;49845;47.130;142.766;2023-04-28T03:41:39;100642.06;;;12.86;33.26
63700;BME280;49845;47.130;142.766;2023-04-28T03:44:09;100627.72;;;13.03;29.40
63700;BME280;49845;47.130;142.766;2023-04-28T03:46:40;100629.91;;;12.82;30.24
63700;BME280;49845;47.130;142.766;2023-04-28T03:49:10;100630.97;;;12.73;29.82
63700;BME280;49845;47.130;142.766;2023-04-28T03:51:41;100624.31;;;13.01;30.10
63700;BME280;49845;47.130;142.766;2023-04-28T03:54:11;100610.28;;;13.02;30.26
63700;BME280;49845;47.130;142.766;2023-04-28T03:56:44;100624.25;;;12.59;29.72
63700;BME280;49845;47.130;142.766;2023-04-28T03:59:15;100626.31;;;12.41;29.36
63700;BME280;49845;47.130;142.766;2023-04-28T04:01:46;100630.28;;;12.64;29.73
63700;BME280;49845;47.130;142.766;2023-04-28T04:04:16;100631.50;;;12.89;29.89
63700;BME280;49845;47.130;142.766;2023-04-28T04:06:47;100640.03;;;13.01;29.81
63700;BME280;49845;47.130;142.766;2023-04-28T04:09:18;100644.38;;;13.02;30.69
63700;BME280;49845;47.130;142.766;2023-04-28T04:11:50;100645.50;;;13.33;29.82
63700;BME280;49845;47.130;142.766;2023-04-28T04:14:20;100653.25;;;12.94;29.47
63700;BME280;49845;47.130;142.766;2023-04-28T04:16:51;100656.47;;;12.64;28.52
63700;BME280;49845;47.130;142.766;2023-04-28T04:19:22;100655.84;;;12.51;29.64
63700;BME280;49845;47.130;142.766;2023-04-28T04:21:54;100645.84;;;12.73;28.93
63700;BME280;49845;47.130;142.766;2023-04-28T04:24:24;100652.50;;;12.89;29.42
63700;BME280;49845;47.130;142.766;2023-04-28T04:26:57;100661.25;;;13.33;29.87
63700;BME280;49845;47.130;142.766;2023-04-28T04:29:27;100630.19;;;13.54;28.68
63700;BME280;49845;47.130;142.766;2023-04-28T04:31:57;100648.44;;;13.18;27.85
63700;BME280;49845;47.130;142.766;2023-04-28T04:34:28;100659.81;;;12.72;29.10
63700;BME280;49845;47.130;142.766;2023-04-28T04:36:58;100659.53;;;12.41;29.02
63700;BME280;49845;47.130;142.766;2023-04-28T04:39:29;100664.09;;;12.28;29.11
63700;BME280;49845;47.130;142.766;2023-04-28T04:42:01;100651.94;;;12.24;30.65
63700;BME280;49845;47.130;142.766;2023-04-28T04:44:43;100650.00;;;12.35;31.95
63700;BME280;49845;47.130;142.766;2023-04-28T04:47:14;100664.91;;;12.33;31.17
63700;BME280;49845;47.130;142.766;2023-04-28T04:49:44;100664.50;;;12.56;31.11
63700;BME280;49845;47.130;142.766;2023-04-28T04:52:14;100649.25;;;12.75;30.11
63700;BME280;49845;47.130;142.766;2023-04-28T04:54:45;100653.44;;;12.85;28.78
63700;BME280;49845;47.130;142.766;2023-04-28T04:57:17;100650.81;;;12.85;29.63
63700;BME280;49845;47.130;142.766;2023-04-28T04:59:48;100665.00;;;12.75;29.75
63700;BME280;49845;47.130;142.766;2023-04-28T05:02:18;100661.38;;;12.36;31.12
63700;BME280;49845;47.130;142.766;2023-04-28T05:04:49;100673.06;;;12.15;31.42
63700;BME280;49845;47.130;142.766;2023-04-28T05:07:25;100630.34;;;12.11;30.60
63700;BME280;49845;47.130;142.766;2023-04-28T05:09:56;100649.84;;;12.44;30.47
63700;BME280;49845;47.130;142.766;2023-04-28T05:12:28;100656.72;;;12.51;30.58
63700;BME280;49845;47.130;142.766;2023-04-28T05:14:58;100656.91;;;12.39;29.74
63700;BME280;49845;47.130;142.766;2023-04-28T05:17:29;100659.66;;;12.33;30.78
63700;BME280;49845;47.130;142.766;2023-04-28T05:19:59;100665.34;;;12.57;30.57
63700;BME280;49845;47.130;142.766;2023-04-28T05:22:30;100647.56;;;12.26;30.19
63700;BME280;49845;47.130;142.766;2023-04-28T05:25:00;100657.19;;;12.24;30.20
63700;BME280;49845;47.130;142.766;2023-04-28T05:27:32;100656.97;;;12.36;27.94
63700;BME280;49845;47.130;142.766;2023-04-28T05:30:06;100658.81;;;12.31;28.62
63700;BME280;49845;47.130;142.766;2023-04-28T05:32:37;100687.84;;;12.17;28.65
63700;BME280;49845;47.130;142.766;2023-04-28T05:35:08;100671.34;;;12.14;27.37
63700;BME280;49845;47.130;142.766;2023-04-28T05:37:38;100673.91;;;12.17;26.61
63700;BME280;49845;47.130;142.766;2023-04-28T05:40:11;100676.78;;;12.01;25.65
63700;BME280;49845;47.130;142.766;2023-04-28T05:42:43;100691.66;;;11.98;26.17
63700;BME280;49845;47.130;142.766;2023-04-28T05:45:13;100685.50;;;12.00;26.90
63700;BME280;49845;47.130;142.766;2023-04-28T05:47:44;100683.59;;;12.10;25.94
63700;BME280;49845;47.130;142.766;2023-04-28T05:50:14;100687.13;;;12.11;24.12
63700;BME280;49845;47.130;142.766;2023-04-28T05:52:45;100648.19;;;11.84;25.58
63700;BME280;49845;47.130;142.766;2023-04-28T05:55:15;100675.00;;;12.03;24.73
63700;BME280;49845;47.130;142.766;2023-04-28T05:57:52;100690.91;;;11.91;25.02
63700;BME280;49845;47.130;142.766;2023-04-28T06:00:22;100689.94;;;11.95;26.63
63700;BME280;49845;47.130;142.766;2023-04-28T06:02:53;100685.50;;;12.00;26.75
63700;BME280;49845;47.130;142.766;2023-04-28T06:05:24;100685.75;;;11.82;26.20
63700;BME280;49845;47.130;142.766;2023-04-28T06:07:55;100644.41;;;11.45;27.04
63700;BME280;49845;47.130;142.766;2023-04-28T06:10:25;100677.28;;;11.64;27.43
63700;BME280;49845;47.130;142.766;2023-04-28T06:12:57;100694.84;;;11.56;28.31
63700;BME280;49845;47.130;142.766;2023-04-28T06:15:28;100676.53;;;11.55;29.35
63700;BME280;49845;47.130;142.766;2023-04-28T06:17:59;100687.31;;;11.95;28.33
63700;BME280;49845;47.130;142.766;2023-04-28T06:20:30;100681.88;;;12.11;31.06
63700;BME280;49845;47.130;142.766;2023-04-28T06:23:00;100692.53;;;11.98;30.93
63700;BME280;49845;47.130;142.766;2023-04-28T06:25:32;100690.06;;;11.84;31.65
63700;BME280;49845;47.130;142.766;2023-04-28T06:28:04;100692.91;;;11.69;31.37
63700;BME280;49845;47.130;142.766;2023-04-28T06:30:35;100700.75;;;11.71;31.46
63700;BME280;49845;47.130;142.766;2023-04-28T06:33:05;100693.25;;;11.46;30.60
63700;BME280;49845;47.130;142.766;2023-04-28T06:35:36;100700.94;;;11.57;31.25
63700;BME280;49845;47.130;142.766;2023-04-28T06:38:07;100697.25;;;11.70;31.32
63700;BME280;49845;47.130;142.766;2023-04-28T06:40:37;100706.00;;;11.69;31.70
63700;BME280;49845;47.130;142.766;2023-04-28T06:43:10;100715.56;;;11.72;32.30
63700;BME280;49845;47.130;142.766;2023-04-28T06:45:40;100713.84;;;11.71;32.08
63700;BME280;49845;47.130;142.766;2023-04-28T06:48:11;100708.75;;;11.60;31.29
63700;BME280;49845;47.130;142.766;2023-04-28T06:50:42;100714.94;;;11.56;31.72
63700;BME280;49845;47.130;142.766;2023-04-28T06:53:12;100708.97;;;11.43;31.52
63700;BME280;49845;47.130;142.766;2023-04-28T06:55:42;100708.13;;;11.41;32.06
63700;BME280;49845;47.130;142.766;2023-04-28T06:58:15;100705.44;;;11.47;31.66
63700;BME280;49845;47.130;142.766;2023-04-28T07:00:45;100717.63;;;11.48;31.48
63700;BME280;49845;47.130;142.766;2023-04-28T07:03:16;100713.34;;;11.42;31.82
63700;BME280;49845;47.130;142.766;2023-04-28T07:05:47;100712.56;;;11.34;30.46
63700;BME280;49845;47.130;142.766;2023-04-28T07:08:17;100723.84;;;11.38;30.56
63700;BME280;49845;47.130;142.766;2023-04-28T07:10:48;100729.97;;;11.37;30.60
63700;BME280;49845;47.130;142.766;2023-04-28T07:13:20;100739.50;;;11.42;31.72
63700;BME280;49845;47.130;142.766;2023-04-28T07:15:50;100740.34;;;11.43;31.68
63700;BME280;49845;47.130;142.766;2023-04-28T07:18:21;100734.44;;;11.29;30.21
63700;BME280;49845;47.130;142.766;2023-04-28T07:20:51;100758.13;;;11.16;30.95
63700;BME280;49845;47.130;142.766;2023-04-28T07:23:22;100756.47;;;11.09;31.12
63700;BME280;49845;47.130;142.766;2023-04-28T07:25:52;100754.75;;;11.05;31.23
63700;BME280;49845;47.130;142.766;2023-04-28T07:28:25;100759.16;;;11.01;30.68
63700;BME280;49845;47.130;142.766;2023-04-28T07:30:55;100763.53;;;10.98;31.18
63700;BME280;49845;47.130;142.766;2023-04-28T07:33:26;100763.63;;;10.89;31.84
63700;BME280;49845;47.130;142.766;2023-04-28T07:35:57;100764.50;;;10.89;32.17
63700;BME280;49845;47.130;142.766;2023-04-28T07:38:27;100772.31;;;10.92;33.09
63700;BME280;49845;47.130;142.766;2023-04-28T07:40:58;100773.19;;;10.90;31.64
63700;BME280;49845;47.130;142.766;2023-04-28T07:43:31;100781.06;;;10.90;32.02
63700;BME280;49845;47.130;142.766;2023-04-28T07:46:01;100772.38;;;10.86;32.08
63700;BME280;49845;47.130;142.766;2023-04-28T07:48:32;100772.34;;;10.88;31.55
63700;BME280;49845;47.130;142.766;2023-04-28T07:51:03;100781.00;;;10.94;31.46
63700;BME280;49845;47.130;142.766;2023-04-28T07:53:33;100777.63;;;10.85;30.81
63700;BME280;49845;47.130;142.766;2023-04-28T07:56:04;100777.75;;;10.69;30.18
63700;BME280;49845;47.130;142.766;2023-04-28T07:58:36;100779.50;;;10.67;31.11
63700;BME280;49845;47.130;142.766;2023-04-28T08:01:07;100784.78;;;10.64;30.53
63700;BME280;49845;47.130;142.766;2023-04-28T08:03:37;100777.78;;;10.63;31.33
63700;BME280;49845;47.130;142.766;2023-04-28T08:06:08;100775.19;;;10.65;31.98
63700;BME280;49845;47.130;142.766;2023-04-28T08:08:38;100769.13;;;10.58;32.75
63700;BME280;49845;47.130;142.766;2023-04-28T08:11:09;100777.94;;;10.45;32.74
63700;BME280;49845;47.130;142.766;2023-04-28T08:13:41;100781.47;;;10.38;33.04
63700;BME280;49845;47.130;142.766;2023-04-28T08:16:12;100791.13;;;10.25;34.19
63700;BME280;49845;47.130;142.766;2023-04-28T08:18:42;100789.44;;;10.14;33.59
63700;BME280;49845;47.130;142.766;2023-04-28T08:21:13;100795.56;;;10.06;33.74
63700;BME280;49845;47.130;142.766;2023-04-28T08:23:43;100790.38;;;10.03;34.81
63700;BME280;49845;47.130;142.766;2023-04-28T08:26:14;100760.94;;;9.79;34.74
63700;BME280;49845;47.130;142.766;2023-04-28T08:28:46;100794.75;;;9.99;35.01
63700;BME280;49845;47.130;142.766;2023-04-28T08:31:17;100791.28;;;9.99;34.82
63700;BME280;49845;47.130;142.766;2023-04-28T08:33:47;100799.13;;;9.99;34.66
63700;BME280;49845;47.130;142.766;2023-04-28T08:36:18;100753.16;;;9.65;34.98
63700;BME280;49845;47.130;142.766;2023-04-28T08:38:49;100807.84;;;9.94;35.34
63700;BME280;49845;47.130;142.766;2023-04-28T08:41:20;100771.44;;;9.64;35.69
63700;BME280;49845;47.130;142.766;2023-04-28T08:43:52;100795.75;;;9.72;36.24
63700;BME280;49845;47.130;142.766;2023-04-28T08:46:23;100812.34;;;9.59;35.68
63700;BME280;49845;47.130;142.766;2023-04-28T08:48:59;100795.88;;;9.35;36.12
63700;BME280;49845;47.130;142.766;2023-04-28T08:51:33;100806.34;;;9.32;36.60
63700;BME280;49845;47.130;142.766;2023-04-28T08:54:08;100810.69;;;9.28;36.79
63700;BME280;49845;47.130;142.766;2023-04-28T08:56:53;100818.53;;;9.15;38.05
63700;BME280;49845;47.130;142.766;2023-04-28T08:59:26;100825.50;;;9.02;39.00
63700;BME280;49845;47.130;142.766;2023-04-28T09:01:57;100835.94;;;8.94;39.74
63700;BME280;49845;47.130;142.766;2023-04-28T09:04:30;100839.41;;;8.72;40.43
63700;BME280;49845;47.130;142.766;2023-04-28T09:07:01;100847.19;;;8.50;40.91
63700;BME280;49845;47.130;142.766;2023-04-28T09:09:32;100846.28;;;8.30;41.32
63700;BME280;49845;47.130;142.766;2023-04-28T09:12:05;100844.47;;;8.10;41.51
63700;BME280;49845;47.130;142.766;2023-04-28T09:14:38;100837.47;;;7.88;42.44
63700;BME280;49845;47.130;142.766;2023-04-28T09:17:12;100853.84;;;7.68;42.90
63700;BME280;49845;47.130;142.766;2023-04-28T09:19:43;100858.06;;;7.48;43.61
63700;BME280;49845;47.130;142.766;2023-04-28T09:22:14;100864.00;;;7.28;44.32
63700;BME280;49845;47.130;142.766;2023-04-28T09:24:53;100854.22;;;6.94;45.28
63700;BME280;49845;47.130;142.766;2023-04-28T09:27:26;100878.41;;;6.83;45.69
63700;BME280;49845;47.130;142.766;2023-04-28T09:29:59;100884.19;;;6.56;46.77
63700;BME280;49845;47.130;142.766;2023-04-28T09:32:31;100865.75;;;6.27;47.01
63700;BME280;49845;47.130;142.766;2023-04-28T09:35:05;100870.81;;;6.15;47.41
63700;BME280;49845;47.130;142.766;2023-04-28T09:37:36;100872.38;;;6.03;48.04
63700;BME280;49845;47.130;142.766;2023-04-28T09:40:08;100918.56;;;6.34;49.17
63700;BME280;49845;47.130;142.766;2023-04-28T09:42:41;100919.56;;;6.43;49.37
63700;BME280;49845;47.130;142.766;2023-04-28T09:45:14;100942.00;;;6.38;49.32
63700;BME280;49845;47.130;142.766;2023-04-28T09:47:48;100941.81;;;6.23;49.52
63700;BME280;49845;47.130;142.766;2023-04-28T09:50:18;100947.88;;;6.23;48.60
63700;BME280;49845;47.130;142.766;2023-04-28T09:52:55;100945.16;;;6.13;47.84
63700;BME280;49845;47.130;142.766;2023-04-28T09:55:27;100947.66;;;6.05;47.97
63700;BME280;49845;47.130;142.766;2023-04-28T09:58:03;100969.28;;;6.05;47.61
63700;BME280;49845;47.130;142.766;2023-04-28T10:00:40;100946.72;;;6.01;47.78
63700;BME280;49845;47.130;142.766;2023-04-28T10:03:12;100961.38;;;5.98;48.39
63700;BME280;49845;47.130;142.766;2023-04-28T10:05:44;100971.75;;;5.98;48.59
63700;BME280;49845;47.130;142.766;2023-04-28T10:08:15;100977.03;;;6.02;49.51
63700;BME280;49845;47.130;142.766;2023-04-28T10:10:48;100982.44;;;6.19;50.09
63700;BME280;49845;47.130;142.766;2023-04-28T10:13:21;100966.56;;;5.98;50.27
63700;BME280;49845;47.130;142.766;2023-04-28T10:15:53;101001.34;;;6.11;49.97
63700;BME280;49845;47.130;142.766;2023-04-28T10:18:29;101002.00;;;5.94;49.80
63700;BME280;49845;47.130;142.766;2023-04-28T10:21:03;101009.72;;;5.93;50.53
63700;BME280;49845;47.130;142.766;2023-04-28T10:24:04;101011.13;;;5.72;50.57
63700;BME280;49845;47.130;142.766;2023-04-28T10:27:11;101022.13;;;5.57;51.45
63700;BME280;49845;47.130;142.766;2023-04-28T10:29:44;101011.53;;;5.42;52.63
63700;BME280;49845;47.130;142.766;2023-04-28T10:32:18;101011.44;;;5.39;52.89
63700;BME280;49845;47.130;142.766;2023-04-28T10:34:49;101040.16;;;5.50;53.10
63700;BME280;49845;47.130;142.766;2023-04-28T10:37:20;101044.59;;;5.58;53.03
63700;BME280;49845;47.130;142.766;2023-04-28T10:40:32;101039.59;;;5.68;53.73
63700;BME280;49845;47.130;142.766;2023-04-28T10:43:03;101040.41;;;5.65;53.66
63700;BME280;49845;47.130;142.766;2023-04-28T10:46:02;101040.91;;;5.44;53.73
63700;BME280;49845;47.130;142.766;2023-04-28T10:48:58;101038.97;;;5.31;53.97
63700;BME280;49845;47.130;142.766;2023-04-28T10:51:30;101035.25;;;5.16;54.42
63700;BME280;49845;47.130;142.766;2023-04-28T10:54:13;101031.38;;;4.93;55.25
63700;BME280;49845;47.130;142.766;2023-04-28T10:57:19;101052.84;;;4.89;55.57
63700;BME280;49845;47.130;142.766;2023-04-28T10:59:50;100988.81;;;4.35;56.14
63700;BME280;49845;47.130;142.766;2023-04-28T11:02:39;101047.69;;;4.45;56.45
63700;BME280;49845;47.130;142.766;2023-04-28T11:05:17;101057.94;;;4.42;57.18
63700;BME280;49845;47.130;142.766;2023-04-28T11:11:17;101061.69;;;4.15;58.39
63700;BME280;49845;47.130;142.766;2023-04-28T11:13:49;101060.56;;;4.04;58.92
63700;BME280;49845;47.130;142.766;2023-04-28T11:16:24;101056.06;;;3.95;59.18
63700;BME280;49845;47.130;142.766;2023-04-28T11:18:58;101053.81;;;3.73;59.28
63700;BME280;49845;47.130;142.766;2023-04-28T11:21:33;101077.19;;;3.77;60.12
63700;BME280;49845;47.130;142.766;2023-04-28T11:24:08;101079.59;;;3.71;60.27
63700;BME280;49845;47.130;142.766;2023-04-28T11:26:44;101073.13;;;3.54;60.60
63700;BME280;49845;47.130;142.766;2023-04-28T11:29:15;101067.66;;;3.41;60.59
63700;BME280;49845;47.130;142.766;2023-04-28T11:31:54;101077.44;;;3.20;61.43
63700;BME280;49845;47.130;142.766;2023-04-28T11:34:24;101038.88;;;2.94;61.99
63700;BME280;49845;47.130;142.766;2023-04-28T11:37:00;101056.28;;;3.01;62.63
63700;BME280;49845;47.130;142.766;2023-04-28T11:39:43;101054.34;;;2.94;62.93
63700;BME280;49845;47.130;142.766;2023-04-28T11:42:13;101049.03;;;2.88;63.10
63700;BME280;49845;47.130;142.766;2023-04-28T11:44:52;101041.53;;;2.66;63.79
63700;BME280;49845;47.130;142.766;2023-04-28T11:47:29;101007.59;;;2.22;64.17
63700;BME280;49845;47.130;142.766;2023-04-28T11:50:03;101047.47;;;2.33;64.98
63700;BME280;49845;47.130;142.766;2023-04-28T11:52:47;101056.63;;;2.23;65.27
63700;BME280;49845;47.130;142.766;2023-04-28T11:55:20;101051.41;;;2.22;65.59
63700;BME280;49845;47.130;142.766;2023-04-28T11:58:19;101048.13;;;2.26;65.87
63700;BME280;49845;47.130;142.766;2023-04-28T12:01:05;101045.53;;;2.26;65.74
63700;BME280;49845;47.130;142.766;2023-04-28T12:03:45;101037.44;;;2.13;65.94
63700;BME280;49845;47.130;142.766;2023-04-28T12:06:18;101053.06;;;2.20;66.03
63700;BME280;49845;47.130;142.766;2023-04-28T12:08:57;101058.13;;;2.15;66.20
63700;BME280;49845;47.130;142.766;2023-04-28T12:11:31;101044.06;;;2.05;66.23
63700;BME280;49845;47.130;142.766;2023-04-28T12:14:06;101038.91;;;2.05;66.46
63700;BME280;49845;47.130;142.766;2023-04-28T12:16:38;101018.25;;;1.77;67.17
63700;BME280;49845;47.130;142.766;2023-04-28T12:19:11;101043.22;;;1.79;67.41
63700;BME280;49845;47.130;142.766;2023-04-28T12:21:57;101052.38;;;1.69;68.00
63700;BME280;49845;47.130;142.766;2023-04-28T12:24:32;101029.44;;;1.50;68.44
63700;BME280;49845;47.130;142.766;2023-04-28T12:27:16;101049.47;;;1.59;68.69
63700;BME280;49845;47.130;142.766;2023-04-28T12:29:49;101050.03;;;1.50;68.80
63700;BME280;49845;47.130;142.766;2023-04-28T12:32:36;101037.56;;;1.37;69.28
63700;BME280;49845;47.130;142.766;2023-04-28T12:35:08;101050.53;;;1.40;69.80
63700;BME280;49845;47.130;142.766;2023-04-28T12:37:41;101053.25;;;1.43;69.85
63700;BME280;49845;47.130;142.766;2023-04-28T12:40:14;101052.22;;;1.38;69.65
63700;BME280;49845;47.130;142.766;2023-04-28T12:42:44;101043.19;;;1.25;70.35
63700;BME280;49845;47.130;142.766;2023-04-28T12:45:15;101058.38;;;1.43;70.13
63700;BME280;49845;47.130;142.766;2023-04-28T12:47:45;101060.44;;;1.53;69.92
63700;BME280;49845;47.130;142.766;2023-04-28T12:50:16;101076.72;;;1.78;70.43
63700;BME280;49845;47.130;142.766;2023-04-28T12:52:49;101041.19;;;1.96;69.44
63700;BME280;49845;47.130;142.766;2023-04-28T12:55:35;101071.69;;;2.38;68.66
63700;BME280;49845;47.130;142.766;2023-04-28T12:58:06;101072.31;;;2.59;68.24
63700;BME280;49845;47.130;142.766;2023-04-28T13:00:42;101074.34;;;2.70;68.32
63700;BME280;49845;47.130;142.766;2023-04-28T13:03:13;101073.00;;;2.84;68.06
63700;BME280;49845;47.130;142.766;2023-04-28T13:05:44;101068.09;;;2.93;68.19